Time;durP1;ratioP1;P1;durP2;ratioP2;P2;SDS_P1;SDS_P2;PMS_P1;PMS_P2;Temp;Humidity;BMP_temperature;BMP_pressure;BME280_temperature;BME280_humidity;BME280_pressure;Samples;Min_cycle;Max_cycle;Signal;HPM_P1;HPM_P2
2023/07/22 00:01:32;;;;;;;10.07;6.77;;;;;;;;;;5024153;28;20048;-77
2023/07/22 00:03:58;;;;;;;9.00;6.10;;;;;;;;;;5023741;28;20037;-78
2023/07/22 00:06:24;;;;;;;9.43;6.43;;;;;;;;;;5023763;28;20041;-77
2023/07/22 00:08:50;;;;;;;7.70;5.73;;;;;;;;;;5023583;28;20044;-77
2023/07/22 00:11:18;;;;;;;10.83;5.93;;;;;;;;;;5019646;28;20087;-79
2023/07/22 00:13:44;;;;;;;9.37;6.80;;;;;;;;;;5023934;28;20033;-80
2023/07/22 00:16:10;;;;;;;9.27;5.93;;;;;;;;;;5024592;28;20041;-79
2023/07/22 00:18:41;;;;;;;10.97;6.40;;;;;;;;;;5022295;28;20033;-76
2023/07/22 00:21:08;;;;;;;9.47;5.53;;;;;;;;;;5024014;28;20048;-78
2023/07/22 00:23:34;;;;;;;9.57;6.07;;;;;;;;;;5039911;28;20041;-77
2023/07/22 00:26:00;;;;;;;9.97;6.27;;;;;;;;;;5023157;28;20044;-76
2023/07/22 00:28:26;;;;;;;11.40;6.13;;;;;;;;;;5020631;28;20038;-75
2023/07/22 00:30:53;;;;;;;6.90;5.17;;;;;;;;;;5027264;28;20124;-79
2023/07/22 00:33:19;;;;;;;8.47;5.93;;;;;;;;;;5023578;28;20022;-79
2023/07/22 00:35:51;;;;;;;10.50;6.20;;;;;;;;;;5025359;28;20037;-76
2023/07/22 00:38:17;;;;;;;11.85;6.35;;;;;;;;;;5039569;28;20170;-79
2023/07/22 00:40:43;;;;;;;9.60;5.77;;;;;;;;;;5022157;28;20048;-76
2023/07/22 00:43:12;;;;;;;8.23;5.67;;;;;;;;;;5025856;28;20540;-78
2023/07/22 00:45:38;;;;;;;10.27;5.47;;;;;;;;;;5038114;28;20029;-78
2023/07/22 00:48:05;;;;;;;9.60;5.43;;;;;;;;;;5023457;28;20028;-77
2023/07/22 00:50:31;;;;;;;11.90;6.30;;;;;;;;;;5022825;28;20029;-79
2023/07/22 00:52:57;;;;;;;13.17;5.90;;;;;;;;;;5022877;28;20040;-79
2023/07/22 00:55:23;;;;;;;10.07;5.53;;;;;;;;;;5023509;28;20033;-79
2023/07/22 00:57:49;;;;;;;11.70;5.63;;;;;;;;;;5038689;28;20041;-77
2023/07/22 01:00:16;;;;;;;7.73;5.40;;;;;;;;;;5026300;28;20168;-79
2023/07/22 01:02:42;;;;;;;9.00;5.47;;;;;;;;;;5023291;28;20477;-79
2023/07/22 01:05:10;;;;;;;11.23;5.50;;;;;;;;;;5021238;28;20037;-77
2023/07/22 01:07:36;;;;;;;8.20;5.30;;;;;;;;;;5022531;28;20087;-77
2023/07/22 01:10:02;;;;;;;8.03;5.17;;;;;;;;;;5022857;28;20041;-76
2023/07/22 01:12:29;;;;;;;9.40;5.70;;;;;;;;;;5022325;28;20037;-78
2023/07/22 01:14:55;;;;;;;23.00;6.33;;;;;;;;;;5021633;28;20618;-78
2023/07/22 01:17:21;;;;;;;8.20;5.77;;;;;;;;;;5027080;28;20408;-76
2023/07/22 01:19:47;;;;;;;10.73;5.83;;;;;;;;;;5022124;28;20397;-76
2023/07/22 01:22:14;;;;;;;8.17;5.13;;;;;;;;;;5022870;28;20030;-79
2023/07/22 01:24:42;;;;;;;9.40;5.40;;;;;;;;;;5026322;28;20198;-78
2023/07/22 01:27:09;;;;;;;10.73;5.63;;;;;;;;;;5021158;28;20048;-77
2023/07/22 01:29:36;;;;;;;12.63;6.20;;;;;;;;;;5038288;28;20130;-76
2023/07/22 01:32:02;;;;;;;7.30;4.83;;;;;;;;;;5023704;28;20250;-78
2023/07/22 01:34:29;;;;;;;9.87;5.37;;;;;;;;;;5022803;28;20055;-79
2023/07/22 01:36:58;;;;;;;8.40;5.43;;;;;;;;;;5021820;28;20060;-77
2023/07/22 01:39:24;;;;;;;9.00;6.07;;;;;;;;;;5020786;28;20033;-77
2023/07/22 01:41:50;;;;;;;11.20;5.63;;;;;;;;;;5022150;28;20040;-77
2023/07/22 01:44:20;;;;;;;10.00;5.50;;;;;;;;;;5022217;28;20446;-77
2023/07/22 01:46:46;;;;;;;10.27;5.87;;;;;;;;;;5022636;28;20037;-79
2023/07/22 01:49:13;;;;;;;9.30;5.70;;;;;;;;;;5021330;28;20096;-76
2023/07/22 01:51:40;;;;;;;8.90;5.63;;;;;;;;;;5021725;28;20037;-79
2023/07/22 01:54:06;;;;;;;11.10;5.20;;;;;;;;;;5037617;28;20052;-77
2023/07/22 01:56:32;;;;;;;9.87;5.97;;;;;;;;;;5021852;28;20033;-78
2023/07/22 01:58:58;;;;;;;8.37;5.47;;;;;;;;;;5021868;28;20030;-75
2023/07/22 02:01:24;;;;;;;11.67;5.83;;;;;;;;;;5021263;28;20034;-78
2023/07/22 02:03:50;;;;;;;9.90;6.07;;;;;;;;;;5021989;28;20099;-78
2023/07/22 02:06:16;;;;;;;9.20;5.90;;;;;;;;;;5022072;28;20045;-79
2023/07/22 02:08:42;;;;;;;12.93;5.47;;;;;;;;;;5021904;28;20033;-78
2023/07/22 02:11:11;;;;;;;10.37;6.43;;;;;;;;;;5021839;28;20484;-77
2023/07/22 02:13:37;;;;;;;10.60;7.13;;;;;;;;;;5021357;28;20337;-78
2023/07/22 02:16:03;;;;;;;10.77;6.27;;;;;;;;;;5021895;28;20091;-78
2023/07/22 02:18:32;;;;;;;13.73;6.37;;;;;;;;;;5021572;28;20044;-75
2023/07/22 02:20:58;;;;;;;9.93;5.87;;;;;;;;;;5036063;28;20045;-76
2023/07/22 02:23:27;;;;;;;11.27;6.10;;;;;;;;;;5021727;28;20033;-79
2023/07/22 02:25:53;;;;;;;8.70;6.43;;;;;;;;;;5025697;28;20041;-77
2023/07/22 02:28:21;;;;;;;8.60;6.13;;;;;;;;;;5026156;28;20052;-77
2023/07/22 02:30:47;;;;;;;8.33;5.83;;;;;;;;;;5026056;28;20033;-78
2023/07/22 02:33:14;;;;;;;8.83;5.37;;;;;;;;;;5026555;28;20068;-77
2023/07/22 02:35:41;;;;;;;8.90;5.80;;;;;;;;;;5025567;28;21665;-78
2023/07/22 02:38:07;;;;;;;9.70;6.23;;;;;;;;;;5030325;28;20132;-78
2023/07/22 02:40:39;;;;;;;9.80;6.37;;;;;;;;;;5025616;28;20071;-77
2023/07/22 02:43:06;;;;;;;9.45;5.90;;;;;;;;;;5023300;28;20037;-77
2023/07/22 02:45:33;;;;;;;10.83;6.30;;;;;;;;;;5024994;28;20029;-77
2023/07/22 02:48:01;;;;;;;10.53;6.33;;;;;;;;;;5025555;28;20108;-79
2023/07/22 02:50:27;;;;;;;9.87;6.13;;;;;;;;;;5025235;28;20025;-77
2023/07/22 02:52:53;;;;;;;12.23;5.73;;;;;;;;;;5025587;28;20038;-79
2023/07/22 02:55:19;;;;;;;11.60;6.37;;;;;;;;;;5025518;28;20059;-76
2023/07/22 02:57:46;;;;;;;8.80;5.50;;;;;;;;;;5025856;28;20128;-75
2023/07/22 03:00:12;;;;;;;11.07;6.37;;;;;;;;;;5027740;28;20045;-77
2023/07/22 03:02:39;;;;;;;10.07;6.67;;;;;;;;;;5025413;28;20022;-79
2023/07/22 03:05:07;;;;;;;8.77;5.43;;;;;;;;;;5026039;28;20049;-76
2023/07/22 03:07:34;;;;;;;13.60;6.40;;;;;;;;;;5026236;28;20048;-77
2023/07/22 03:10:00;;;;;;;10.70;6.50;;;;;;;;;;5023945;28;20114;-77
2023/07/22 03:12:27;;;;;;;9.27;6.10;;;;;;;;;;5024460;28;20025;-78
2023/07/22 03:14:55;;;;;;;9.23;6.03;;;;;;;;;;5023255;28;20022;-76
2023/07/22 03:17:22;;;;;;;10.23;6.67;;;;;;;;;;5026280;28;20084;-79
2023/07/22 03:19:48;;;;;;;10.93;6.43;;;;;;;;;;5024909;28;20041;-79
2023/07/22 03:22:20;;;;;;;12.70;6.80;;;;;;;;;;5023317;28;20029;-75
2023/07/22 03:24:46;;;;;;;8.77;6.05;;;;;;;;;;5046177;28;20045;-76
2023/07/22 03:27:17;;;;;;;11.23;6.90;;;;;;;;;;5024650;28;20119;-78
2023/07/22 03:29:45;;;;;;;10.27;6.63;;;;;;;;;;5024275;28;20029;-77
2023/07/22 03:32:13;;;;;;;13.60;6.47;;;;;;;;;;5024167;28;20458;-77
2023/07/22 03:34:39;;;;;;;10.70;6.53;;;;;;;;;;5023640;28;20022;-79
2023/07/22 03:37:05;;;;;;;11.97;6.90;;;;;;;;;;5024830;28;20162;-76
2023/07/22 03:39:31;;;;;;;11.43;6.60;;;;;;;;;;5041759;28;20041;-78
2023/07/22 03:41:59;;;;;;;14.30;7.17;;;;;;;;;;5024276;28;20044;-77
2023/07/22 03:44:26;;;;;;;17.93;7.30;;;;;;;;;;5024540;28;20244;-79
2023/07/22 03:46:52;;;;;;;12.30;6.80;;;;;;;;;;5022768;28;20458;-78
2023/07/22 03:49:18;;;;;;;11.23;6.80;;;;;;;;;;5028270;28;20044;-76
2023/07/22 03:51:44;;;;;;;12.03;6.73;;;;;;;;;;5024446;28;20615;-79
2023/07/22 03:54:12;;;;;;;9.43;6.47;;;;;;;;;;5028350;28;20033;-77
2023/07/22 03:56:40;;;;;;;8.67;6.57;;;;;;;;;;5022300;28;20037;-78
2023/07/22 03:59:06;;;;;;;9.30;6.47;;;;;;;;;;5024058;28;20087;-76
2023/07/22 04:01:32;;;;;;;10.47;6.90;;;;;;;;;;5023722;28;20037;-78
2023/07/22 04:03:58;;;;;;;10.10;6.53;;;;;;;;;;5025001;28;20341;-78
2023/07/22 04:06:24;;;;;;;11.43;6.47;;;;;;;;;;5024065;28;20033;-77
2023/07/22 04:08:50;;;;;;;9.67;6.03;;;;;;;;;;5039593;28;21766;-77
2023/07/22 04:11:16;;;;;;;10.60;6.93;;;;;;;;;;5023137;28;20029;-76
2023/07/22 04:13:42;;;;;;;9.77;7.10;;;;;;;;;;5022746;28;20040;-78
2023/07/22 04:16:08;;;;;;;9.77;6.57;;;;;;;;;;5022378;28;20514;-79
2023/07/22 04:18:34;;;;;;;10.47;7.00;;;;;;;;;;5023193;28;20037;-78
2023/07/22 04:21:02;;;;;;;10.93;7.07;;;;;;;;;;5039814;28;20044;-78
2023/07/22 04:23:28;;;;;;;8.77;6.30;;;;;;;;;;5023217;28;20061;-74
2023/07/22 04:25:57;;;;;;;12.03;7.20;;;;;;;;;;5021862;28;20033;-77
2023/07/22 04:28:25;;;;;;;10.10;6.23;;;;;;;;;;5024185;28;20034;-76
2023/07/22 04:30:58;;;;;;;10.37;6.77;;;;;;;;;;5023715;28;20049;-78
2023/07/22 04:33:28;;;;;;;11.33;7.23;;;;;;;;;;5023319;28;20172;-79
2023/07/22 04:35:54;;;;;;;11.97;7.20;;;;;;;;;;5023122;28;20060;-77
2023/07/22 04:38:20;;;;;;;13.50;7.50;;;;;;;;;;5023192;28;20040;-78
2023/07/22 04:40:46;;;;;;;9.83;6.73;;;;;;;;;;5022908;28;20374;-77
2023/07/22 04:43:12;;;;;;;10.70;7.27;;;;;;;;;;5021547;28;20065;-78
2023/07/22 04:45:40;;;;;;;9.97;7.13;;;;;;;;;;5022284;28;20041;-75
2023/07/22 04:48:06;;;;;;;10.80;7.17;;;;;;;;;;5022480;28;20048;-79
2023/07/22 04:50:35;;;;;;;11.43;7.07;;;;;;;;;;5023123;28;20111;-76
2023/07/22 04:53:01;;;;;;;12.23;7.83;;;;;;;;;;5033570;28;20045;-73
2023/07/22 04:55:32;;;;;;;12.90;7.57;;;;;;;;;;5046241;28;20033;-72
2023/07/22 04:57:58;;;;;;;10.80;7.77;;;;;;;;;;5065840;28;20040;-71
2023/07/22 05:00:28;;;;;;;11.77;7.07;;;;;;;;;;5049097;28;20037;-71
2023/07/22 05:02:56;;;;;;;13.73;8.33;;;;;;;;;;5048909;28;20014;-73
2023/07/22 05:05:24;;;;;;;13.30;8.10;;;;;;;;;;5048023;28;20033;-71
2023/07/22 05:07:50;;;;;;;12.53;7.97;;;;;;;;;;5063498;28;20064;-75
2023/07/22 05:10:19;;;;;;;12.23;7.63;;;;;;;;;;5048254;28;20040;-72
2023/07/22 05:12:45;;;;;;;12.30;7.70;;;;;;;;;;5047893;28;20069;-75
2023/07/22 05:15:11;;;;;;;16.03;8.37;;;;;;;;;;5045589;28;20122;-74
2023/07/22 05:17:37;;;;;;;14.68;8.38;;;;;;;;;;5047711;28;20018;-74
2023/07/22 05:20:09;;;;;;;13.83;7.37;;;;;;;;;;5049432;28;20468;-70
2023/07/22 05:22:35;;;;;;;12.88;7.45;;;;;;;;;;5047877;28;20124;-73
2023/07/22 05:25:02;;;;;;;11.65;7.30;;;;;;;;;;5047274;28;20048;-72
2023/07/22 05:27:29;;;;;;;12.15;7.25;;;;;;;;;;5048172;28;20021;-73
2023/07/22 05:29:55;;;;;;;12.38;7.15;;;;;;;;;;5053901;28;20029;-71
2023/07/22 05:32:21;;;;;;;11.55;7.25;;;;;;;;;;5046510;28;20101;-73
2023/07/22 05:34:47;;;;;;;10.13;6.78;;;;;;;;;;5048083;28;20042;-71
2023/07/22 05:37:13;;;;;;;10.07;6.63;;;;;;;;;;5047284;28;20021;-71
2023/07/22 05:39:39;;;;;;;14.35;7.00;;;;;;;;;;5047091;28;20349;-73
2023/07/22 05:42:08;;;;;;;12.88;7.82;;;;;;;;;;5045438;28;20022;-72
2023/07/22 05:44:34;;;;;;;11.90;7.43;;;;;;;;;;5047447;28;20085;-75
2023/07/22 05:47:02;;;;;;;8.32;6.00;;;;;;;;;;5046769;28;20034;-73
2023/07/22 05:49:30;;;;;;;11.68;7.47;;;;;;;;;;5045890;28;20029;-72
2023/07/22 05:51:56;;;;;;;10.38;6.50;;;;;;;;;;5046777;28;20019;-71
2023/07/22 05:54:25;;;;;;;10.52;7.05;;;;;;;;;;5045634;28;20044;-74
2023/07/22 05:56:55;;;;;;;13.27;7.00;;;;;;;;;;5048011;28;20021;-71
2023/07/22 05:59:23;;;;;;;9.27;6.40;;;;;;;;;;5048707;28;20009;-73
2023/07/22 06:01:49;;;;;;;9.98;6.20;;;;;;;;;;5048288;28;20045;-74
2023/07/22 06:04:18;;;;;;;9.73;6.43;;;;;;;;;;5048106;28;20038;-72
2023/07/22 06:06:44;;;;;;;9.80;7.38;;;;;;;;;;5049050;28;20045;-72
2023/07/22 06:09:10;;;;;;;12.75;6.97;;;;;;;;;;5049725;28;20048;-71
2023/07/22 06:11:36;;;;;;;13.20;6.53;;;;;;;;;;5049987;28;20048;-70
2023/07/22 06:14:02;;;;;;;11.25;6.22;;;;;;;;;;5065403;28;20044;-74
2023/07/22 06:16:28;;;;;;;9.68;6.32;;;;;;;;;;5053918;28;20034;-71
2023/07/22 06:18:54;;;;;;;11.80;6.45;;;;;;;;;;5048251;28;20030;-72
2023/07/22 06:21:22;;;;;;;9.65;5.72;;;;;;;;;;5048986;28;20026;-72
2023/07/22 06:23:48;;;;;;;9.10;6.03;;;;;;;;;;5052315;28;20093;-72
2023/07/22 06:26:14;;;;;;;11.02;6.70;;;;;;;;;;5047902;28;20033;-71
2023/07/22 06:28:40;;;;;;;9.73;6.43;;;;;;;;;;5048003;28;20036;-71
2023/07/22 06:31:08;;;;;;;9.02;5.90;;;;;;;;;;5047691;28;20132;-72
2023/07/22 06:33:34;;;;;;;9.15;6.28;;;;;;;;;;5048934;28;20073;-72
2023/07/22 06:36:02;;;;;;;10.07;6.78;;;;;;;;;;5049987;28;20024;-72
2023/07/22 06:38:32;;;;;;;9.75;6.38;;;;;;;;;;5048034;28;20097;-71
2023/07/22 06:40:58;;;;;;;11.45;6.80;;;;;;;;;;5047939;28;20033;-71
2023/07/22 06:43:24;;;;;;;12.43;6.40;;;;;;;;;;5043578;28;20052;-71
2023/07/22 06:45:50;;;;;;;10.73;6.40;;;;;;;;;;5046300;28;20022;-72
2023/07/22 06:48:17;;;;;;;12.13;6.60;;;;;;;;;;5064206;28;20060;-74
2023/07/22 06:50:49;;;;;;;12.10;8.13;;;;;;;;;;5037137;28;20137;-76
2023/07/22 06:53:15;;;;;;;12.15;7.80;;;;;;;;;;5024964;28;20021;-78
2023/07/22 06:55:41;;;;;;;8.65;5.85;;;;;;;;;;5021520;28;20044;-76
2023/07/22 06:58:07;;;;;;;10.75;6.45;;;;;;;;;;5032899;28;20067;-74
2023/07/22 07:00:35;;;;;;;11.23;6.53;;;;;;;;;;5045250;28;20132;-70
2023/07/22 07:03:01;;;;;;;9.85;6.13;;;;;;;;;;5047965;28;20116;-73
2023/07/22 07:05:31;;;;;;;8.55;6.32;;;;;;;;;;5036045;28;20060;-77
2023/07/22 07:07:57;;;;;;;10.05;6.97;;;;;;;;;;5032587;28;20013;-77
2023/07/22 07:10:23;;;;;;;10.18;6.78;;;;;;;;;;5033107;28;20108;-75
2023/07/22 07:12:50;;;;;;;14.38;7.55;;;;;;;;;;5049513;28;20076;-72
2023/07/22 07:15:15;;;;;;;10.75;6.97;;;;;;;;;;5034035;28;20076;-78
2023/07/22 07:17:44;;;;;;;14.77;7.13;;;;;;;;;;5048824;28;20035;-74
2023/07/22 07:20:10;;;;;;;11.35;6.85;;;;;;;;;;5034706;28;20022;-77
2023/07/22 07:22:36;;;;;;;11.73;7.40;;;;;;;;;;5032609;28;20049;-76
2023/07/22 07:25:02;;;;;;;12.18;6.15;;;;;;;;;;5027438;28;20037;-81
2023/07/22 07:27:28;;;;;;;10.18;6.20;;;;;;;;;;5029355;28;20057;-80
2023/07/22 07:29:56;;;;;;;8.82;5.90;;;;;;;;;;5028573;28;20034;-80
2023/07/22 07:32:23;;;;;;;11.45;6.85;;;;;;;;;;5023472;28;20026;-84
2023/07/22 07:34:52;;;;;;;9.65;6.35;;;;;;;;;;5027692;28;20707;-83
2023/07/22 07:37:18;;;;;;;9.57;6.68;;;;;;;;;;5026024;28;20037;-80
2023/07/22 07:39:44;;;;;;;11.63;7.30;;;;;;;;;;5022745;28;20048;-84
2023/07/22 07:42:10;;;;;;;12.15;6.65;;;;;;;;;;5029593;28;20040;-81
2023/07/22 07:44:37;;;;;;;8.13;5.72;;;;;;;;;;5025342;28;20483;-79
2023/07/22 07:47:05;;;;;;;11.00;7.10;;;;;;;;;;5041396;28;20033;-81
2023/07/22 07:49:31;;;;;;;10.27;5.97;;;;;;;;;;5024679;28;20135;-80
2023/07/22 07:51:57;;;;;;;10.75;6.13;;;;;;;;;;5024863;28;20072;-79
2023/07/22 07:54:23;;;;;;;8.25;5.50;;;;;;;;;;5025202;28;20493;-81
2023/07/22 07:56:49;;;;;;;11.27;5.63;;;;;;;;;;5042801;28;20029;-79
2023/07/22 07:59:15;;;;;;;10.35;6.70;;;;;;;;;;5023653;28;20084;-79
2023/07/22 08:01:41;;;;;;;9.60;5.57;;;;;;;;;;5024593;28;20033;-83
2023/07/22 08:04:10;;;;;;;9.55;5.57;;;;;;;;;;5024275;28;20102;-79
2023/07/22 08:06:38;;;;;;;14.98;5.45;;;;;;;;;;5024315;28;20041;-82
2023/07/22 08:09:06;;;;;;;8.50;5.40;;;;;;;;;;5040096;28;20038;-79
2023/07/22 08:11:35;;;;;;;11.63;6.28;;;;;;;;;;5024970;28;20203;-84
2023/07/22 08:14:01;;;;;;;8.60;5.47;;;;;;;;;;5023287;28;20037;-80
2023/07/22 08:16:27;;;;;;;8.07;5.38;;;;;;;;;;5023205;28;20033;-82
2023/07/22 08:18:56;;;;;;;14.13;5.22;;;;;;;;;;5023017;28;20033;-81
2023/07/22 08:21:22;;;;;;;8.32;5.35;;;;;;;;;;5023738;28;20160;-82
2023/07/22 08:23:48;;;;;;;11.05;5.70;;;;;;;;;;5024119;28;20045;-84
2023/07/22 08:26:14;;;;;;;7.78;5.68;;;;;;;;;;5022803;28;20040;-80
2023/07/22 08:28:40;;;;;;;9.38;4.70;;;;;;;;;;5040064;28;20038;-81
2023/07/22 08:31:09;;;;;;;8.95;5.55;;;;;;;;;;5023125;28;20029;-79
2023/07/22 08:33:35;;;;;;;10.88;5.70;;;;;;;;;;5038843;28;20044;-76
2023/07/22 08:36:03;;;;;;;7.28;4.88;;;;;;;;;;5023224;28;20128;-79
2023/07/22 08:38:31;;;;;;;6.88;4.53;;;;;;;;;;5022679;28;20100;-75
2023/07/22 08:40:57;;;;;;;8.23;4.82;;;;;;;;;;5022922;28;20033;-75
2023/07/22 08:43:23;;;;;;;15.07;4.78;;;;;;;;;;5023059;28;20037;-77
2023/07/22 08:45:50;;;;;;;7.95;4.90;;;;;;;;;;5038792;28;20044;-79
2023/07/22 08:48:18;;;;;;;6.07;4.22;;;;;;;;;;5038820;28;20033;-78
2023/07/22 08:50:44;;;;;;;7.68;4.35;;;;;;;;;;5022947;28;20041;-79
2023/07/22 08:53:11;;;;;;;6.70;3.97;;;;;;;;;;5022540;28;20037;-78
2023/07/22 08:55:39;;;;;;;5.85;3.72;;;;;;;;;;5020798;28;20034;-77
2023/07/22 08:58:06;;;;;;;6.13;4.07;;;;;;;;;;5022605;28;20871;-77
2023/07/22 09:00:32;;;;;;;5.47;3.90;;;;;;;;;;5023053;28;20037;-78
2023/07/22 09:02:59;;;;;;;9.98;4.38;;;;;;;;;;5021179;28;20033;-78
2023/07/22 09:05:25;;;;;;;9.40;4.70;;;;;;;;;;5021353;28;20033;-77
2023/07/22 09:07:52;;;;;;;6.32;4.50;;;;;;;;;;5019460;28;20511;-76
2023/07/22 09:10:18;;;;;;;6.65;3.80;;;;;;;;;;5021595;28;20789;-79
2023/07/22 09:12:47;;;;;;;7.22;4.45;;;;;;;;;;5022486;28;20053;-81
2023/07/22 09:15:15;;;;;;;5.88;4.00;;;;;;;;;;5022241;28;20041;-77
2023/07/22 09:17:42;;;;;;;8.57;4.43;;;;;;;;;;5022652;28;20120;-79
2023/07/22 09:20:08;;;;;;;6.38;4.20;;;;;;;;;;5022191;28;20140;-75
2023/07/22 09:22:34;;;;;;;5.90;4.28;;;;;;;;;;5038026;28;20349;-78
2023/07/22 09:25:27;;;;;;;8.15;4.28;;;;;;;;;;5018090;28;20802;-77
2023/07/22 09:27:54;;;;;;;11.68;3.53;;;;;;;;;;5020163;28;20045;-78
2023/07/22 09:30:20;;;;;;;14.73;4.72;;;;;;;;;;5021541;28;20021;-78
2023/07/22 09:32:46;;;;;;;11.80;4.45;;;;;;;;;;5021696;28;20090;-78
2023/07/22 09:35:12;;;;;;;12.85;5.47;;;;;;;;;;5021592;28;20030;-78
2023/07/22 09:37:39;;;;;;;9.40;5.00;;;;;;;;;;5020859;28;20362;-76
2023/07/22 09:40:20;;;;;;;7.85;3.97;;;;;;;;;;5020812;28;20065;-78
2023/07/22 09:42:49;;;;;;;10.10;3.22;;;;;;;;;;5020781;28;20076;-81
2023/07/22 09:45:16;;;;;;;4.45;2.75;;;;;;;;;;5027282;28;20095;-79
2023/07/22 09:47:45;;;;;;;6.22;3.15;;;;;;;;;;5020312;28;20060;-76
2023/07/22 09:50:12;;;;;;;7.75;3.90;;;;;;;;;;5021794;28;20347;-78
2023/07/22 09:53:03;;;;;;;3.97;2.53;;;;;;;;;;5021974;28;20033;-76
2023/07/22 09:55:30;;;;;;;7.25;2.50;;;;;;;;;;5021779;28;20041;-77
2023/07/22 09:58:00;;;;;;;15.35;4.05;;;;;;;;;;5020985;28;20037;-82
2023/07/22 10:00:29;;;;;;;4.97;3.22;;;;;;;;;;5021793;28;20044;-78
2023/07/22 10:02:59;;;;;;;4.75;3.03;;;;;;;;;;5021718;28;20045;-79
2023/07/22 10:05:26;;;;;;;3.28;2.17;;;;;;;;;;5024038;28;20025;-79
2023/07/22 10:07:54;;;;;;;4.63;2.42;;;;;;;;;;5021824;28;20029;-78
2023/07/22 10:10:24;;;;;;;2.40;1.75;;;;;;;;;;5022345;28;20065;-81
2023/07/22 10:12:50;;;;;;;4.80;2.17;;;;;;;;;;5025368;28;20044;-79
2023/07/22 10:15:19;;;;;;;5.22;2.40;;;;;;;;;;5020728;28;20034;-78
2023/07/22 10:17:46;;;;;;;8.57;2.60;;;;;;;;;;5037905;28;20044;-78
2023/07/22 10:20:16;;;;;;;9.02;2.38;;;;;;;;;;5016912;28;20493;-77
2023/07/22 10:22:45;;;;;;;3.47;2.28;;;;;;;;;;5019180;28;20087;-80
2023/07/22 10:25:14;;;;;;;4.90;2.38;;;;;;;;;;5021011;28;20026;-77
2023/07/22 10:27:41;;;;;;;3.38;1.98;;;;;;;;;;5018908;28;20041;-79
2023/07/22 10:30:14;;;;;;;4.70;1.88;;;;;;;;;;5020441;28;20030;-76
2023/07/22 10:32:45;;;;;;;2.88;1.80;;;;;;;;;;5023875;28;20038;-76
2023/07/22 10:35:12;;;;;;;6.82;2.10;;;;;;;;;;5020451;28;20018;-78
2023/07/22 10:37:47;;;;;;;6.65;1.85;;;;;;;;;;5019906;28;20373;-78
2023/07/22 10:40:30;;;;;;;6.65;1.80;;;;;;;;;;5024706;28;20037;-77
2023/07/22 10:43:02;;;;;;;6.90;2.13;;;;;;;;;;5020278;28;20088;-78
2023/07/22 10:45:40;;;;;;;3.08;1.88;;;;;;;;;;5020496;28;20025;-78
2023/07/22 10:48:09;;;;;;;2.67;1.90;;;;;;;;;;5025177;28;20029;-80
2023/07/22 10:50:46;;;;;;;8.82;2.15;;;;;;;;;;5026996;28;20060;-77
2023/07/22 10:53:23;;;;;;;3.75;2.00;;;;;;;;;;5026411;28;20040;-79
2023/07/22 10:56:07;;;;;;;4.93;2.00;;;;;;;;;;5025699;28;20041;-79
2023/07/22 10:58:34;;;;;;;3.72;1.58;;;;;;;;;;5045597;28;20037;-78
2023/07/22 11:01:24;;;;;;;2.17;1.60;;;;;;;;;;5026967;28;20052;-78
2023/07/22 11:04:07;;;;;;;3.00;1.88;;;;;;;;;;5029016;28;21104;-78
2023/07/22 11:06:34;;;;;;;2.53;1.60;;;;;;;;;;5024199;28;20541;-78
2023/07/22 11:09:03;;;;;;;6.05;2.00;;;;;;;;;;5023719;28;20029;-76
2023/07/22 11:11:41;;;;;;;3.35;1.85;;;;;;;;;;5024404;28;20072;-79
2023/07/22 11:14:24;;;;;;;2.47;1.90;;;;;;;;;;5024520;28;20025;-75
2023/07/22 11:16:50;;;;;;;2.72;1.50;;;;;;;;;;5024404;28;20068;-78
2023/07/22 11:19:19;;;;;;;3.70;2.15;;;;;;;;;;5024843;28;20037;-79
2023/07/22 11:21:47;;;;;;;3.00;1.83;;;;;;;;;;5024714;28;20032;-78
2023/07/22 11:24:13;;;;;;;5.43;1.80;;;;;;;;;;5024296;28;20048;-77
2023/07/22 11:26:40;;;;;;;3.72;2.08;;;;;;;;;;5023483;28;20038;-79
2023/07/22 11:29:09;;;;;;;4.75;2.13;;;;;;;;;;5024289;28;20034;-77
2023/07/22 11:31:42;;;;;;;15.63;2.55;;;;;;;;;;5024388;28;20032;-79
2023/07/22 11:34:12;;;;;;;5.18;2.00;;;;;;;;;;5023091;28;20110;-80
2023/07/22 11:36:38;;;;;;;4.80;2.05;;;;;;;;;;5022775;28;20025;-78
2023/07/22 11:39:07;;;;;;;3.40;2.28;;;;;;;;;;5024085;28;20485;-78
2023/07/22 11:41:34;;;;;;;3.30;2.00;;;;;;;;;;5023577;28;20038;-78
2023/07/22 11:44:00;;;;;;;5.10;2.00;;;;;;;;;;5021787;28;20033;-79
2023/07/22 11:46:27;;;;;;;3.22;2.25;;;;;;;;;;5024633;28;20037;-79
2023/07/22 11:48:55;;;;;;;4.07;2.05;;;;;;;;;;5024495;28;20026;-77
2023/07/22 11:51:22;;;;;;;4.20;2.38;;;;;;;;;;5022460;28;20033;-79
2023/07/22 11:53:49;;;;;;;6.75;2.30;;;;;;;;;;5022705;28;20130;-77
2023/07/22 11:56:33;;;;;;;2.88;2.03;;;;;;;;;;5021148;28;20120;-77
2023/07/22 11:59:04;;;;;;;2.30;1.83;;;;;;;;;;5023517;28;20035;-77
2023/07/22 12:01:32;;;;;;;5.28;2.30;;;;;;;;;;5023919;28;20029;-79
2023/07/22 12:03:58;;;;;;;2.90;2.08;;;;;;;;;;5039944;28;20125;-80
2023/07/22 12:06:28;;;;;;;3.35;1.90;;;;;;;;;;5023298;28;20040;-77
2023/07/22 12:08:54;;;;;;;2.05;1.80;;;;;;;;;;5023768;28;20087;-79
2023/07/22 12:11:24;;;;;;;3.08;1.95;;;;;;;;;;5023666;28;20029;-75
2023/07/22 12:14:07;;;;;;;2.83;2.03;;;;;;;;;;5023805;28;20065;-77
2023/07/22 12:16:35;;;;;;;2.90;2.08;;;;;;;;;;5019968;28;20180;-77
2023/07/22 12:19:01;;;;;;;4.80;2.67;;;;;;;;;;5023783;28;20029;-77
2023/07/22 12:21:27;;;;;;;2.72;2.38;;;;;;;;;;5023942;28;20037;-77
2023/07/22 12:23:54;;;;;;;3.03;2.20;;;;;;;;;;5023071;28;20049;-77
2023/07/22 12:26:20;;;;;;;2.90;1.75;;;;;;;;;;5040307;28;20033;-78
2023/07/22 12:28:46;;;;;;;3.88;1.90;;;;;;;;;;5022934;28;20032;-79
2023/07/22 12:31:12;;;;;;;3.15;1.63;;;;;;;;;;5023253;28;20048;-79
2023/07/22 12:33:38;;;;;;;2.50;1.77;;;;;;;;;;5023266;28;20090;-78
2023/07/22 12:36:04;;;;;;;3.15;2.20;;;;;;;;;;5022858;28;20472;-78
2023/07/22 12:38:30;;;;;;;4.45;1.75;;;;;;;;;;5021718;28;20037;-77
2023/07/22 12:40:57;;;;;;;6.57;2.42;;;;;;;;;;5039458;28;20079;-79
2023/07/22 12:43:23;;;;;;;4.97;2.60;;;;;;;;;;5027789;28;20561;-78
2023/07/22 12:45:51;;;;;;;2.72;1.70;;;;;;;;;;5022982;28;20192;-77
2023/07/22 12:48:19;;;;;;;4.50;1.85;;;;;;;;;;5022612;28;20043;-79
2023/07/22 12:50:47;;;;;;;2.22;1.67;;;;;;;;;;5023116;28;20033;-77
2023/07/22 12:53:13;;;;;;;4.25;1.88;;;;;;;;;;5022523;28;20462;-76
2023/07/22 12:55:39;;;;;;;5.82;1.92;;;;;;;;;;5022674;28;20044;-79
2023/07/22 12:58:08;;;;;;;2.40;1.70;;;;;;;;;;5022855;28;20025;-81
2023/07/22 13:00:34;;;;;;;2.72;1.85;;;;;;;;;;5022023;28;20148;-78
2023/07/22 13:03:00;;;;;;;1.63;1.27;;;;;;;;;;5022929;28;20134;-79
2023/07/22 13:05:26;;;;;;;2.63;1.65;;;;;;;;;;5022378;28;20602;-75
2023/07/22 13:07:52;;;;;;;1.98;1.27;;;;;;;;;;5022995;28;20033;-77
2023/07/22 13:10:20;;;;;;;3.17;1.48;;;;;;;;;;5040870;28;21610;-80
2023/07/22 13:12:46;;;;;;;2.92;1.90;;;;;;;;;;5023669;28;20044;-81
2023/07/22 13:15:12;;;;;;;2.30;1.40;;;;;;;;;;5022644;28;20041;-78
2023/07/22 13:17:38;;;;;;;2.55;1.40;;;;;;;;;;5022926;28;20038;-78
2023/07/22 13:20:08;;;;;;;2.83;1.45;;;;;;;;;;5025554;28;20025;-79
2023/07/22 13:22:36;;;;;;;5.40;2.17;;;;;;;;;;5022355;28;20033;-75
2023/07/22 13:25:04;;;;;;;9.50;2.20;;;;;;;;;;5023060;28;20029;-77
2023/07/22 13:27:30;;;;;;;2.50;1.70;;;;;;;;;;5025849;28;20041;-77
2023/07/22 13:29:57;;;;;;;2.30;1.70;;;;;;;;;;5025686;28;20040;-76
2023/07/22 13:32:23;;;;;;;3.13;1.70;;;;;;;;;;5023946;28;20033;-80
2023/07/22 13:34:49;;;;;;;2.85;1.80;;;;;;;;;;5022078;28;20037;-80
2023/07/22 13:37:15;;;;;;;2.63;1.85;;;;;;;;;;5022733;28;20021;-77
2023/07/22 13:39:41;;;;;;;2.90;1.40;;;;;;;;;;5026873;28;20048;-77
2023/07/22 13:42:10;;;;;;;2.22;1.55;;;;;;;;;;5021406;28;20041;-80
2023/07/22 13:44:36;;;;;;;2.50;1.92;;;;;;;;;;5032785;28;20359;-77
2023/07/22 13:47:04;;;;;;;3.35;1.80;;;;;;;;;;5037452;28;20112;-78
2023/07/22 13:49:32;;;;;;;2.65;1.70;;;;;;;;;;5027944;28;20032;-78
2023/07/22 13:51:58;;;;;;;3.70;1.90;;;;;;;;;;5026257;28;20153;-79
2023/07/22 13:54:24;;;;;;;3.58;2.35;;;;;;;;;;5022064;28;20100;-78
2023/07/22 13:56:50;;;;;;;2.78;1.65;;;;;;;;;;5021534;28;20810;-79
2023/07/22 13:59:16;;;;;;;7.00;2.05;;;;;;;;;;5020835;28;20034;-78
2023/07/22 14:01:45;;;;;;;2.40;1.90;;;;;;;;;;5039666;28;20051;-77
2023/07/22 14:04:13;;;;;;;3.00;1.65;;;;;;;;;;5023653;28;20520;-78
2023/07/22 14:06:39;;;;;;;5.72;1.67;;;;;;;;;;5026597;28;20034;-78
2023/07/22 14:09:08;;;;;;;2.70;1.77;;;;;;;;;;5024412;28;20044;-79
2023/07/22 14:11:34;;;;;;;3.50;2.03;;;;;;;;;;5020763;28;20037;-78
2023/07/22 14:14:00;;;;;;;3.95;2.50;;;;;;;;;;5020880;28;21613;-79
2023/07/22 14:16:28;;;;;;;3.38;2.03;;;;;;;;;;5021100;28;20079;-75
2023/07/22 14:18:56;;;;;;;6.03;2.08;;;;;;;;;;5021691;28;20701;-79
2023/07/22 14:21:22;;;;;;;4.20;2.58;;;;;;;;;;5039265;28;20454;-75
2023/07/22 14:23:48;;;;;;;4.82;2.50;;;;;;;;;;5023382;28;20064;-79
2023/07/22 14:26:14;;;;;;;3.33;2.20;;;;;;;;;;5039754;28;20037;-77
2023/07/22 14:28:45;;;;;;;5.22;2.40;;;;;;;;;;5021742;28;20515;-76
2023/07/22 14:31:11;;;;;;;3.70;2.60;;;;;;;;;;5022046;28;20382;-77
2023/07/22 14:33:39;;;;;;;4.50;2.80;;;;;;;;;;5020847;28;20172;-78
2023/07/22 14:36:05;;;;;;;3.25;2.50;;;;;;;;;;5021302;28;20037;-77
2023/07/22 14:38:36;;;;;;;3.13;2.25;;;;;;;;;;5021057;28;20034;-80
2023/07/22 14:41:02;;;;;;;10.02;2.28;;;;;;;;;;5019056;28;20033;-77